Terminal Aerodrome Forecast
Issued by NWS

Home | Current Version | Previous Version | Text Only | Print | Product List | Glossary On
Versions: 1 2 3 4 5 6 7 8 9 10 11 12 13 14 15 16 17 18 19 20 21 22 23 24 25 26 27 28 29 30 31
010
FTPA31 PHFO 270016 AAA
TAFMDY
TAF AMD
PMDY 270016Z 2700/2724 03005KT P6SM SCT015 SCT040 BKN080
      TEMPO 2700/2703 BKN015
     FM271500 07011KT P6SM SCT015 SCT050=

USA.gov is the U.S. government's official web portal to all federal, state and local government web resources and services.